createdAt,value
2022-12-12T00:00:21.624Z,3.53
2022-12-12T00:02:50.918Z,3.55
2022-12-12T00:05:20.812Z,3.58
2022-12-12T00:07:49.985Z,3.57
2022-12-12T00:10:19.744Z,3.51
2022-12-12T00:12:49.042Z,3.49
2022-12-12T00:15:18.025Z,3.56
2022-12-12T00:17:48.727Z,3.54
2022-12-12T00:20:18.731Z,3.49
2022-12-12T00:22:48.940Z,3.47
2022-12-12T00:25:18.825Z,3.45
2022-12-12T00:27:49.038Z,3.40
2022-12-12T00:30:19.240Z,3.32
2022-12-12T00:32:50.899Z,3.23
2022-12-12T00:35:20.093Z,3.22
2022-12-12T00:37:49.107Z,3.19
2022-12-12T00:40:18.984Z,3.19
2022-12-12T00:42:47.925Z,3.17
2022-12-12T00:45:17.744Z,3.13
2022-12-12T00:47:46.713Z,3.16
2022-12-12T00:50:18.301Z,3.11
2022-12-12T00:52:48.109Z,3.15
2022-12-12T00:55:17.149Z,3.11
2022-12-12T00:57:46.413Z,3.17
2022-12-12T01:00:16.979Z,3.13
2022-12-12T01:02:47.131Z,3.13
2022-12-12T01:05:18.305Z,3.16
2022-12-12T01:07:47.442Z,3.09
2022-12-12T01:10:16.456Z,3.07
2022-12-12T01:12:46.928Z,3.26
2022-12-12T01:15:16.285Z,3.34
2022-12-12T01:17:46.369Z,3.31
2022-12-12T01:20:22.766Z,3.38
2022-12-12T01:22:52.451Z,3.27
2022-12-12T01:25:22.077Z,3.39
2022-12-12T01:27:51.055Z,3.45
2022-12-12T01:30:23.949Z,3.43
2022-12-12T01:32:53.167Z,3.42
2022-12-12T01:35:24.823Z,3.35
2022-12-12T01:37:54.463Z,3.29
2022-12-12T01:40:27.722Z,3.26
2022-12-12T01:42:57.018Z,3.21
2022-12-12T01:46:14.615Z,3.27
2022-12-12T01:48:47.689Z,3.15
2022-12-12T01:51:22.914Z,3.13
2022-12-12T01:53:55.856Z,3.18
2022-12-12T01:56:26.433Z,3.15
2022-12-12T01:58:56.931Z,3.12
2022-12-12T02:01:26.514Z,3.14
2022-12-12T02:03:56.735Z,3.13
2022-12-12T02:06:28.721Z,3.11
2022-12-12T02:09:00.941Z,3.06
2022-12-12T02:11:31.016Z,2.97
2022-12-12T02:14:01.358Z,3.00
2022-12-12T02:16:48.067Z,3.00
2022-12-12T02:19:55.997Z,2.92
2022-12-12T02:22:45.376Z,2.90
2022-12-12T02:25:46.054Z,2.90
2022-12-12T02:28:45.509Z,2.93
2022-12-12T02:31:23.053Z,2.85
2022-12-12T02:33:58.842Z,2.87
2022-12-12T02:36:38.506Z,2.76
2022-12-12T02:39:15.635Z,2.80
2022-12-12T02:41:49.076Z,2.86
2022-12-12T02:44:26.060Z,2.79
2022-12-12T02:47:02.975Z,2.84
2022-12-12T02:49:38.459Z,2.99
2022-12-12T02:52:09.943Z,2.92
2022-12-12T02:54:39.138Z,2.82
2022-12-12T02:57:16.759Z,2.85
2022-12-12T02:59:50.873Z,2.62
2022-12-12T03:02:51.082Z,2.78
2022-12-12T03:05:54.476Z,2.80
2022-12-12T03:08:40.946Z,2.52
2022-12-12T03:11:14.438Z,2.65
2022-12-12T03:13:51.487Z,2.63
2022-12-12T03:16:28.038Z,2.73
2022-12-12T03:19:05.073Z,2.49
2022-12-12T03:21:39.703Z,2.13
2022-12-12T03:24:16.581Z,2.41
2022-12-12T03:26:50.524Z,2.41
2022-12-12T03:29:27.300Z,2.38
2022-12-12T03:32:05.003Z,2.39
2022-12-12T03:34:41.155Z,2.12
2022-12-12T03:37:14.786Z,2.32
2022-12-12T03:39:48.363Z,2.39
2022-12-12T03:42:22.889Z,1.99
2022-12-12T03:44:57.969Z,2.23
2022-12-12T03:47:33.260Z,2.23
2022-12-12T03:50:09.657Z,2.35
2022-12-12T03:52:44.818Z,2.35
2022-12-12T03:55:18.314Z,2.44
2022-12-12T03:57:53.660Z,2.43
2022-12-12T04:00:22.946Z,2.30
2022-12-12T04:02:56.319Z,2.43
2022-12-12T04:05:31.898Z,2.44
2022-12-12T04:08:06.457Z,2.48
2022-12-12T04:11:00.839Z,2.45
2022-12-12T04:13:35.126Z,2.14
2022-12-12T04:16:08.104Z,1.94
2022-12-12T04:18:39.341Z,2.16
2022-12-12T04:21:41.536Z,2.12
2022-12-12T04:24:21.901Z,2.20
2022-12-12T04:26:56.731Z,2.25
2022-12-12T04:29:36.454Z,2.38
2022-12-12T04:32:11.890Z,2.41
2022-12-12T04:34:47.950Z,2.32
2022-12-12T04:37:22.898Z,2.41
2022-12-12T04:39:55.912Z,2.43
2022-12-12T04:42:26.622Z,2.37
2022-12-12T04:45:03.192Z,2.32
2022-12-12T04:47:34.313Z,2.19
2022-12-12T04:50:05.490Z,2.28
2022-12-12T04:52:37.408Z,2.39
2022-12-12T04:55:11.962Z,2.45
2022-12-12T04:57:44.759Z,2.45
2022-12-12T05:00:15.672Z,2.34
2022-12-12T05:02:52.960Z,2.56
2022-12-12T05:05:30.319Z,2.53
2022-12-12T05:08:08.099Z,2.64
2022-12-12T05:10:44.160Z,2.60
2022-12-12T05:13:18.852Z,2.61
2022-12-12T05:15:49.919Z,2.31
2022-12-12T05:18:19.167Z,2.48
2022-12-12T05:20:48.685Z,2.60
2022-12-12T05:23:20.667Z,2.61
2022-12-12T05:25:49.695Z,2.55
2022-12-12T05:28:18.801Z,2.63
2022-12-12T05:30:51.752Z,2.64
2022-12-12T05:33:23.123Z,2.73
2022-12-12T05:35:52.365Z,2.76
2022-12-12T05:38:23.438Z,2.76
2022-12-12T05:40:52.501Z,2.61
2022-12-12T05:43:22.047Z,2.74
2022-12-12T05:45:51.418Z,2.89
2022-12-12T05:48:24.314Z,2.94
2022-12-12T05:50:54.173Z,2.69
2022-12-12T05:53:25.624Z,2.87
2022-12-12T05:55:54.866Z,2.91
2022-12-12T05:58:24.815Z,2.83
2022-12-12T06:00:57.352Z,3.00
2022-12-12T06:03:30.903Z,2.83
2022-12-12T06:06:00.340Z,2.98
2022-12-12T06:08:31.947Z,3.09
2022-12-12T06:11:01.322Z,3.16
2022-12-12T06:13:30.948Z,3.13
2022-12-12T06:16:00.194Z,3.18
2022-12-12T06:18:29.493Z,3.09
2022-12-12T06:21:05.313Z,3.19
2022-12-12T06:23:37.209Z,2.98
2022-12-12T06:26:06.857Z,3.17
2022-12-12T06:28:36.535Z,3.16
2022-12-12T06:31:11.503Z,3.14
2022-12-12T06:33:42.193Z,3.30
2022-12-12T06:36:14.176Z,3.24
2022-12-12T06:38:45.348Z,3.27
2022-12-12T06:41:15.971Z,3.33
2022-12-12T06:43:45.949Z,3.28
2022-12-12T06:46:17.043Z,3.34
2022-12-12T06:48:46.245Z,3.31
2022-12-12T06:51:18.762Z,3.39
2022-12-12T06:53:49.731Z,3.38
2022-12-12T06:56:22.831Z,3.51
2022-12-12T06:58:53.031Z,3.49
2022-12-12T07:01:24.108Z,3.47
2022-12-12T07:03:54.076Z,3.54
2022-12-12T07:06:25.370Z,3.48
2022-12-12T07:08:56.625Z,3.46
2022-12-12T07:11:27.131Z,3.51
2022-12-12T07:13:58.561Z,3.37
2022-12-12T07:16:28.682Z,3.34
2022-12-12T07:18:58.518Z,3.33
2022-12-12T07:21:28.380Z,3.22
2022-12-12T07:23:59.300Z,3.21
2022-12-12T07:26:29.629Z,3.16
2022-12-12T07:28:59.362Z,3.05
2022-12-12T07:31:29.344Z,3.07
2022-12-12T07:33:59.439Z,3.11
2022-12-12T07:36:28.475Z,3.13
2022-12-12T07:38:59.209Z,3.05
2022-12-12T07:41:28.311Z,3.03
2022-12-12T07:43:57.508Z,3.11
2022-12-12T07:46:27.393Z,3.19
2022-12-12T07:48:56.735Z,3.28
2022-12-12T07:51:25.984Z,3.41
2022-12-12T07:53:55.591Z,3.48
2022-12-12T07:56:26.187Z,3.49
2022-12-12T07:58:55.830Z,3.61
2022-12-12T08:01:27.640Z,3.71
2022-12-12T08:03:58.301Z,3.80
2022-12-12T08:06:27.360Z,3.85
2022-12-12T08:08:56.509Z,3.99
2022-12-12T08:11:27.731Z,4.11
2022-12-12T08:13:57.160Z,4.29
2022-12-12T08:16:28.488Z,4.42
2022-12-12T08:18:59.406Z,4.53
2022-12-12T08:21:28.980Z,4.60
2022-12-12T08:23:58.995Z,4.68
2022-12-12T08:26:30.783Z,4.78
2022-12-12T08:29:00.602Z,4.83
2022-12-12T08:31:30.447Z,4.88
2022-12-12T08:34:01.349Z,4.97
2022-12-12T08:36:32.981Z,5.05
2022-12-12T08:39:06.834Z,5.01
2022-12-12T08:41:38.663Z,4.66
2022-12-12T08:44:08.346Z,4.99
2022-12-12T08:46:38.630Z,5.17
2022-12-12T08:49:08.751Z,5.15
2022-12-12T08:51:39.991Z,5.27
2022-12-12T08:54:10.133Z,5.34
2022-12-12T08:56:41.010Z,5.46
2022-12-12T08:59:10.385Z,5.33
2022-12-12T09:01:41.066Z,5.52
2022-12-12T09:04:11.770Z,5.56
2022-12-12T09:06:41.515Z,5.41
2022-12-12T09:09:10.817Z,5.57
2022-12-12T09:11:41.425Z,5.63
2022-12-12T09:14:11.625Z,5.60
2022-12-12T09:16:41.497Z,5.50
2022-12-12T09:19:10.646Z,5.48
2022-12-12T09:21:39.744Z,5.53
2022-12-12T09:24:09.626Z,5.35
2022-12-12T09:26:38.834Z,5.56
2022-12-12T09:29:10.077Z,5.61
2022-12-12T09:31:39.249Z,5.63
2022-12-12T09:34:09.826Z,5.70
2022-12-12T09:36:38.860Z,5.74
2022-12-12T09:39:08.738Z,5.71
2022-12-12T09:41:37.959Z,5.71
2022-12-12T09:44:11.654Z,5.71
2022-12-12T09:46:43.980Z,5.79
2022-12-12T09:49:17.714Z,5.90
2022-12-12T09:51:50.048Z,5.69
2022-12-12T09:54:22.084Z,5.81
2022-12-12T09:57:12.628Z,5.98
2022-12-12T09:59:50.666Z,5.82
2022-12-12T10:02:41.067Z,5.93
2022-12-12T10:05:23.657Z,5.80
2022-12-12T10:08:01.918Z,5.87
2022-12-12T10:10:35.581Z,5.94
2022-12-12T10:13:07.850Z,6.00
2022-12-12T10:15:42.068Z,6.10
2022-12-12T10:18:21.200Z,6.28
2022-12-12T10:20:56.276Z,6.67
2022-12-12T10:23:32.653Z,6.91
2022-12-12T10:26:05.026Z,6.81
2022-12-12T10:28:36.726Z,6.82
2022-12-12T10:31:29.404Z,6.85
2022-12-12T10:34:18.971Z,6.82
2022-12-12T10:37:04.456Z,6.78
2022-12-12T10:39:44.348Z,6.73
2022-12-12T10:42:25.617Z,6.76
2022-12-12T10:45:20.758Z,6.75
2022-12-12T10:47:51.808Z,6.65
2022-12-12T10:50:30.409Z,6.57
2022-12-12T10:52:59.541Z,6.70
2022-12-12T10:55:39.169Z,6.44
2022-12-12T10:58:08.507Z,6.70
2022-12-12T11:00:40.178Z,6.79
2022-12-12T11:03:26.744Z,6.80
2022-12-12T11:05:56.935Z,6.91
2022-12-12T11:08:29.514Z,7.06
2022-12-12T11:11:05.402Z,7.17
2022-12-12T11:13:42.103Z,7.27
2022-12-12T11:16:17.380Z,7.27
2022-12-12T11:19:02.164Z,7.25
2022-12-12T11:21:34.973Z,7.20
2022-12-12T11:24:10.941Z,7.18
2022-12-12T11:26:47.136Z,7.19
2022-12-12T11:29:30.106Z,7.29
2022-12-12T11:32:00.739Z,7.23
2022-12-12T11:34:34.072Z,7.17
2022-12-12T11:37:04.696Z,7.18
2022-12-12T11:39:45.314Z,7.16
2022-12-12T11:42:22.540Z,7.17
2022-12-12T11:45:01.369Z,7.13
2022-12-12T11:47:40.107Z,7.16
2022-12-12T11:50:23.560Z,6.91
2022-12-12T11:52:55.518Z,7.04
2022-12-12T11:55:36.430Z,7.12
2022-12-12T11:58:17.477Z,7.22
2022-12-12T12:00:56.273Z,7.14
2022-12-12T12:03:36.857Z,7.12
2022-12-12T12:06:34.254Z,7.19
2022-12-12T12:09:26.188Z,7.13
2022-12-12T12:12:04.057Z,7.10
2022-12-12T12:14:50.195Z,7.26
2022-12-12T12:17:30.338Z,7.25
2022-12-12T12:20:09.661Z,7.19
2022-12-12T12:22:51.586Z,7.21
2022-12-12T12:25:39.522Z,7.16
2022-12-12T12:28:39.896Z,7.26
2022-12-12T12:31:18.025Z,7.32
2022-12-12T12:34:01.632Z,7.37
2022-12-12T12:36:38.379Z,7.44
2022-12-12T12:39:22.983Z,7.48
2022-12-12T12:42:08.929Z,7.50
2022-12-12T12:44:48.229Z,7.44
2022-12-12T12:47:28.822Z,7.50
2022-12-12T12:50:07.235Z,7.59
2022-12-12T12:52:40.898Z,7.65
2022-12-12T12:55:18.247Z,7.67
2022-12-12T12:57:50.563Z,7.64
2022-12-12T13:00:22.073Z,7.68
2022-12-12T13:02:59.433Z,7.67
2022-12-12T13:05:35.130Z,7.64
2022-12-12T13:08:19.212Z,7.61
2022-12-12T13:10:54.040Z,7.58
2022-12-12T13:13:26.509Z,7.51
2022-12-12T13:16:00.267Z,7.40
2022-12-12T13:18:44.582Z,7.36
2022-12-12T13:21:25.703Z,7.28
2022-12-12T13:24:03.569Z,7.12
2022-12-12T13:26:42.359Z,6.99
2022-12-12T13:29:29.620Z,6.95
2022-12-12T13:32:26.286Z,6.73
2022-12-12T13:34:59.624Z,6.48
2022-12-12T13:37:33.775Z,6.27
2022-12-12T13:40:06.193Z,6.26
2022-12-12T13:42:56.027Z,6.30
2022-12-12T13:45:41.559Z,6.27
2022-12-12T13:48:45.930Z,6.29
2022-12-12T13:51:37.058Z,6.29
2022-12-12T13:54:52.713Z,6.17
2022-12-12T13:57:32.403Z,6.13
2022-12-12T14:00:20.753Z,6.15
2022-12-12T14:03:09.411Z,5.99
2022-12-12T14:05:41.680Z,5.98
2022-12-12T14:08:25.338Z,6.09
2022-12-12T14:11:01.741Z,5.99
2022-12-12T14:13:43.201Z,5.79
2022-12-12T14:16:33.626Z,5.67
2022-12-12T14:19:06.249Z,5.66
2022-12-12T14:21:42.133Z,5.62
2022-12-12T14:24:57.760Z,5.33
2022-12-12T14:28:03.861Z,5.27
2022-12-12T14:30:46.380Z,5.23
2022-12-12T14:33:59.387Z,5.02
2022-12-12T14:36:52.489Z,4.95
2022-12-12T14:39:44.850Z,4.78
2022-12-12T14:42:27.807Z,4.80
2022-12-12T14:45:27.885Z,4.75
2022-12-12T14:48:18.369Z,4.78
2022-12-12T14:51:11.365Z,4.66
2022-12-12T14:53:48.652Z,4.54
2022-12-12T14:56:19.946Z,4.51
2022-12-12T14:58:58.595Z,4.59
2022-12-12T15:01:35.559Z,4.59
2022-12-12T15:04:07.591Z,4.59
2022-12-12T15:06:39.889Z,4.50
2022-12-12T15:09:29.912Z,4.41
2022-12-12T15:12:15.128Z,4.25
2022-12-12T15:14:55.281Z,4.15
2022-12-12T15:17:29.575Z,4.11
2022-12-12T15:20:01.253Z,4.05
2022-12-12T15:22:34.939Z,4.07
2022-12-12T15:25:15.948Z,4.07
2022-12-12T15:27:55.367Z,4.05
2022-12-12T15:30:32.593Z,3.85
2022-12-12T15:33:03.505Z,3.80
2022-12-12T15:35:35.663Z,3.71
2022-12-12T15:38:12.533Z,3.60
2022-12-12T15:40:42.757Z,3.55
2022-12-12T15:43:16.225Z,3.47
2022-12-12T15:45:52.184Z,3.46
2022-12-12T15:48:21.774Z,3.43
2022-12-12T15:50:57.398Z,3.33
2022-12-12T15:53:32.906Z,3.33
2022-12-12T15:56:05.071Z,3.28
2022-12-12T15:58:37.171Z,3.24
2022-12-12T16:01:21.012Z,3.22
2022-12-12T16:03:56.674Z,3.24
2022-12-12T16:06:28.930Z,3.14
2022-12-12T16:09:09.749Z,3.17
2022-12-12T16:11:45.798Z,3.14
2022-12-12T16:14:39.509Z,2.91
2022-12-12T16:17:14.932Z,2.92
2022-12-12T16:19:48.024Z,2.93
2022-12-12T16:22:34.173Z,2.93
2022-12-12T16:25:18.361Z,2.83
2022-12-12T16:27:51.289Z,2.90
2022-12-12T16:30:21.641Z,2.69
2022-12-12T16:32:51.170Z,2.74
2022-12-12T16:35:23.548Z,2.63
2022-12-12T16:37:53.908Z,2.69
2022-12-12T16:40:27.122Z,2.65
2022-12-12T16:43:07.829Z,2.48
2022-12-12T16:45:41.115Z,2.32
2022-12-12T16:48:17.038Z,2.25
2022-12-12T16:50:47.806Z,2.15
2022-12-12T16:53:17.540Z,1.97
2022-12-12T16:55:50.621Z,2.09
2022-12-12T16:58:21.482Z,2.11
2022-12-12T17:00:54.176Z,2.01
2022-12-12T17:03:25.714Z,1.95
2022-12-12T17:05:58.702Z,2.01
2022-12-12T17:08:27.925Z,2.02
2022-12-12T17:11:10.509Z,1.96
2022-12-12T17:13:46.494Z,1.86
2022-12-12T17:16:16.341Z,1.89
2022-12-12T17:18:48.329Z,1.83
2022-12-12T17:21:23.086Z,1.86
2022-12-12T17:23:56.082Z,1.65
2022-12-12T17:26:30.819Z,1.65
2022-12-12T17:29:07.727Z,1.56
2022-12-12T17:31:40.793Z,1.65
2022-12-12T17:34:12.258Z,1.68
2022-12-12T17:36:44.890Z,1.68
2022-12-12T17:39:16.180Z,1.53
2022-12-12T17:41:53.522Z,1.55
2022-12-12T17:44:26.779Z,1.42
2022-12-12T17:46:58.263Z,1.42
2022-12-12T17:49:28.480Z,1.41
2022-12-12T17:51:58.486Z,1.33
2022-12-12T17:54:36.068Z,1.42
2022-12-12T17:57:09.014Z,1.50
2022-12-12T17:59:40.146Z,1.54
2022-12-12T18:02:12.270Z,1.41
2022-12-12T18:04:44.356Z,1.42
2022-12-12T18:07:14.739Z,1.47
2022-12-12T18:09:44.144Z,1.46
2022-12-12T18:12:16.892Z,1.57
2022-12-12T18:14:46.446Z,1.49
2022-12-12T18:17:19.444Z,1.48
2022-12-12T18:19:52.837Z,1.55
2022-12-12T18:22:22.465Z,1.49
2022-12-12T18:24:51.656Z,1.43
2022-12-12T18:27:22.423Z,1.52
2022-12-12T18:29:51.628Z,1.44
2022-12-12T18:32:24.255Z,1.69
2022-12-12T18:34:54.525Z,1.85
2022-12-12T18:37:27.576Z,1.79
2022-12-12T18:39:57.888Z,1.97
2022-12-12T18:42:28.694Z,2.01
2022-12-12T18:45:00.009Z,1.97
2022-12-12T18:47:29.335Z,1.93
2022-12-12T18:49:59.849Z,1.95
2022-12-12T18:52:29.344Z,1.91
2022-12-12T18:54:59.258Z,1.94
2022-12-12T18:57:29.786Z,1.98
2022-12-12T19:00:00.966Z,2.01
2022-12-12T19:02:37.663Z,2.06
2022-12-12T19:05:13.546Z,2.07
2022-12-12T19:07:44.373Z,2.02
2022-12-12T19:10:15.246Z,2.16
2022-12-12T19:12:46.966Z,2.17
2022-12-12T19:15:17.402Z,2.20
2022-12-12T19:17:47.205Z,2.07
2022-12-12T19:20:17.945Z,2.03
2022-12-12T19:22:49.517Z,1.95
2022-12-12T19:25:21.163Z,2.00
2022-12-12T19:27:51.851Z,1.97
2022-12-12T19:30:21.490Z,1.81
2022-12-12T19:32:50.663Z,1.81
2022-12-12T19:35:20.045Z,1.64
2022-12-12T19:37:50.220Z,1.50
2022-12-12T19:40:20.055Z,1.53
2022-12-12T19:42:50.792Z,1.55
2022-12-12T19:45:20.569Z,1.59
2022-12-12T19:47:50.550Z,1.51
2022-12-12T19:50:20.986Z,1.52
2022-12-12T19:52:50.396Z,1.39
2022-12-12T19:55:20.536Z,1.22
2022-12-12T19:57:54.685Z,1.15
2022-12-12T20:00:26.301Z,1.27
2022-12-12T20:02:56.242Z,1.21
2022-12-12T20:05:25.990Z,1.19
2022-12-12T20:07:56.220Z,0.98
2022-12-12T20:10:25.484Z,1.01
2022-12-12T20:12:58.632Z,0.94
2022-12-12T20:15:28.155Z,0.94
2022-12-12T20:18:01.218Z,0.92
2022-12-12T20:20:32.548Z,0.93
2022-12-12T20:23:01.801Z,0.79
2022-12-12T20:25:31.327Z,0.83
2022-12-12T20:28:02.072Z,0.86
2022-12-12T20:30:33.376Z,0.61
2022-12-12T20:33:02.719Z,0.64
2022-12-12T20:35:31.878Z,0.65
2022-12-12T20:38:00.984Z,0.84
2022-12-12T20:40:30.384Z,0.79
2022-12-12T20:43:03.585Z,0.77
2022-12-12T20:45:39.380Z,0.80
2022-12-12T20:48:08.711Z,0.78
2022-12-12T20:50:38.141Z,0.76
2022-12-12T20:53:11.249Z,0.81
2022-12-12T20:55:40.044Z,0.73
2022-12-12T20:58:09.915Z,0.70
2022-12-12T21:00:41.332Z,0.65
2022-12-12T21:03:10.572Z,0.56
2022-12-12T21:05:40.966Z,0.54
2022-12-12T21:08:10.183Z,0.62
2022-12-12T21:10:40.396Z,0.58
2022-12-12T21:13:10.649Z,0.60
2022-12-12T21:15:43.552Z,0.56
2022-12-12T21:18:12.699Z,0.50
2022-12-12T21:20:46.061Z,0.43
2022-12-12T21:23:21.331Z,0.61
2022-12-12T21:25:50.767Z,0.47
2022-12-12T21:28:20.022Z,0.41
2022-12-12T21:30:50.791Z,0.38
2022-12-12T21:33:20.719Z,0.44
2022-12-12T21:35:49.877Z,0.35
2022-12-12T21:38:19.342Z,0.42
2022-12-12T21:40:48.407Z,0.26
2022-12-12T21:43:18.782Z,0.18
2022-12-12T21:45:48.178Z,0.09
2022-12-12T21:48:20.023Z,0.19
2022-12-12T21:50:49.001Z,0.28
2022-12-12T21:53:36.507Z,0.14
2022-12-12T21:56:07.518Z,0.10
2022-12-12T21:58:38.144Z,0.14
2022-12-12T22:01:09.052Z,0.11
2022-12-12T22:03:40.024Z,0.04
2022-12-12T22:06:13.955Z,0.04
2022-12-12T22:08:44.018Z,0.05
2022-12-12T22:11:13.524Z,0.12
2022-12-12T22:13:44.602Z,0.12
2022-12-12T22:16:19.144Z,0.13
2022-12-12T22:18:50.989Z,0.15
2022-12-12T22:21:23.455Z,0.06
2022-12-12T22:23:55.725Z,0.10
2022-12-12T22:26:27.274Z,0.14
2022-12-12T22:28:57.801Z,0.20
2022-12-12T22:31:29.353Z,0.20
2022-12-12T22:34:02.116Z,0.19
2022-12-12T22:36:33.195Z,0.29
2022-12-12T22:39:03.244Z,0.32
2022-12-12T22:41:32.492Z,0.31
2022-12-12T22:44:05.009Z,0.43
2022-12-12T22:46:36.959Z,0.37
2022-12-12T22:49:14.735Z,0.48
2022-12-12T22:51:44.199Z,0.44
2022-12-12T22:54:13.466Z,0.51
2022-12-12T22:56:43.245Z,0.48
2022-12-12T22:59:13.668Z,0.40
2022-12-12T23:01:43.213Z,0.51
2022-12-12T23:04:15.245Z,0.45
2022-12-12T23:06:44.784Z,0.58
2022-12-12T23:09:16.165Z,0.56
2022-12-12T23:11:45.859Z,0.57
2022-12-12T23:14:16.996Z,0.54
2022-12-12T23:16:46.473Z,0.60
2022-12-12T23:19:20.348Z,0.55
2022-12-12T23:21:49.648Z,0.43
2022-12-12T23:24:18.738Z,0.47
2022-12-12T23:26:48.595Z,0.43
2022-12-12T23:29:17.850Z,0.54
2022-12-12T23:31:47.999Z,0.44
2022-12-12T23:34:23.325Z,0.43
2022-12-12T23:36:52.688Z,0.43
2022-12-12T23:39:22.588Z,0.43
2022-12-12T23:41:51.834Z,0.54
2022-12-12T23:44:23.385Z,0.52
2022-12-12T23:46:52.826Z,0.59
2022-12-12T23:49:27.006Z,0.46
2022-12-12T23:51:58.695Z,0.55
2022-12-12T23:54:32.429Z,0.51
2022-12-12T23:57:01.794Z,0.50
2022-12-12T23:59:31.653Z,0.53
